sensor_id;sensor_type;location;lat;lon;timestamp;temperature;humidity
27258;DHT22;62045;49.986;8.672;2022-12-10T00:04:23;15.10;59.50
27258;DHT22;62045;49.986;8.672;2022-12-10T00:09:25;15.20;59.40
27258;DHT22;62045;49.986;8.672;2022-12-10T00:14:26;15.10;59.40
27258;DHT22;62045;49.986;8.672;2022-12-10T00:19:26;15.10;59.50
27258;DHT22;62045;49.986;8.672;2022-12-10T00:24:28;15.00;59.60
27258;DHT22;62045;49.986;8.672;2022-12-10T00:29:29;14.90;59.70
27258;DHT22;62045;49.986;8.672;2022-12-10T00:34:30;14.80;59.80
27258;DHT22;62045;49.986;8.672;2022-12-10T00:39:32;14.70;59.80
27258;DHT22;62045;49.986;8.672;2022-12-10T00:44:32;14.70;59.90
27258;DHT22;62045;49.986;8.672;2022-12-10T00:49:33;14.70;59.90
27258;DHT22;62045;49.986;8.672;2022-12-10T00:54:35;14.80;59.80
27258;DHT22;62045;49.986;8.672;2022-12-10T00:59:36;15.00;59.50
27258;DHT22;62045;49.986;8.672;2022-12-10T01:04:37;15.00;59.20
27258;DHT22;62045;49.986;8.672;2022-12-10T01:09:39;15.10;59.10
27258;DHT22;62045;49.986;8.672;2022-12-10T01:14:40;15.10;59.10
27258;DHT22;62045;49.986;8.672;2022-12-10T01:19:41;15.00;59.10
27258;DHT22;62045;49.986;8.672;2022-12-10T01:24:43;15.00;59.20
27258;DHT22;62045;49.986;8.672;2022-12-10T01:29:43;14.90;59.30
27258;DHT22;62045;49.986;8.672;2022-12-10T01:34:44;14.80;59.40
27258;DHT22;62045;49.986;8.672;2022-12-10T01:39:47;14.70;59.40
27258;DHT22;62045;49.986;8.672;2022-12-10T01:45:01;14.60;59.50
27258;DHT22;62045;49.986;8.672;2022-12-10T01:50:04;14.70;59.60
27258;DHT22;62045;49.986;8.672;2022-12-10T01:55:46;14.80;59.40
27258;DHT22;62045;49.986;8.672;2022-12-10T02:00:56;15.00;59.10
27258;DHT22;62045;49.986;8.672;2022-12-10T02:06:06;15.10;58.80
27258;DHT22;62045;49.986;8.672;2022-12-10T02:11:14;15.10;58.70
27258;DHT22;62045;49.986;8.672;2022-12-10T02:16:21;15.00;58.60
27258;DHT22;62045;49.986;8.672;2022-12-10T02:21:32;15.00;58.70
27258;DHT22;62045;49.986;8.672;2022-12-10T02:26:42;14.90;58.80
27258;DHT22;62045;49.986;8.672;2022-12-10T02:31:47;14.80;58.90
27258;DHT22;62045;49.986;8.672;2022-12-10T02:36:52;14.70;59.10
27258;DHT22;62045;49.986;8.672;2022-12-10T02:41:54;14.60;59.20
27258;DHT22;62045;49.986;8.672;2022-12-10T02:46:58;14.60;59.30
27258;DHT22;62045;49.986;8.672;2022-12-10T02:52:07;14.70;59.20
27258;DHT22;62045;49.986;8.672;2022-12-10T02:57:31;14.80;59.00
27258;DHT22;62045;49.986;8.672;2022-12-10T03:02:44;15.00;58.80
27258;DHT22;62045;49.986;8.672;2022-12-10T03:07:49;15.10;58.50
27258;DHT22;62045;49.986;8.672;2022-12-10T03:12:56;15.10;58.40
27258;DHT22;62045;49.986;8.672;2022-12-10T03:18:02;15.10;58.40
27258;DHT22;62045;49.986;8.672;2022-12-10T03:23:03;15.10;58.50
27258;DHT22;62045;49.986;8.672;2022-12-10T03:28:07;15.00;58.50
27258;DHT22;62045;49.986;8.672;2022-12-10T03:33:10;14.90;58.70
27258;DHT22;62045;49.986;8.672;2022-12-10T03:38:11;14.80;58.90
27258;DHT22;62045;49.986;8.672;2022-12-10T03:43:13;14.70;59.00
27258;DHT22;62045;49.986;8.672;2022-12-10T03:48:15;14.70;59.20
27258;DHT22;62045;49.986;8.672;2022-12-10T03:53:16;14.70;59.20
27258;DHT22;62045;49.986;8.672;2022-12-10T03:58:17;14.80;59.00
27258;DHT22;62045;49.986;8.672;2022-12-10T04:03:18;14.90;58.70
27258;DHT22;62045;49.986;8.672;2022-12-10T04:08:19;15.00;58.50
27258;DHT22;62045;49.986;8.672;2022-12-10T04:13:20;15.10;58.40
27258;DHT22;62045;49.986;8.672;2022-12-10T04:18:22;15.10;58.30
27258;DHT22;62045;49.986;8.672;2022-12-10T04:23:23;15.00;58.30
27258;DHT22;62045;49.986;8.672;2022-12-10T04:28:23;15.00;58.50
27258;DHT22;62045;49.986;8.672;2022-12-10T04:33:25;14.90;58.60
27258;DHT22;62045;49.986;8.672;2022-12-10T04:38:26;14.80;58.70
27258;DHT22;62045;49.986;8.672;2022-12-10T04:43:27;14.70;59.40
27258;DHT22;62045;49.986;8.672;2022-12-10T04:48:29;14.60;58.90
27258;DHT22;62045;49.986;8.672;2022-12-10T04:53:29;14.70;58.90
27258;DHT22;62045;49.986;8.672;2022-12-10T04:58:30;14.80;58.70
27258;DHT22;62045;49.986;8.672;2022-12-10T05:03:32;14.90;58.50
27258;DHT22;62045;49.986;8.672;2022-12-10T05:08:34;15.00;58.20
27258;DHT22;62045;49.986;8.672;2022-12-10T05:13:34;15.10;58.10
27258;DHT22;62045;49.986;8.672;2022-12-10T05:18:36;15.10;58.10
27258;DHT22;62045;49.986;8.672;2022-12-10T05:23:38;15.00;58.20
27258;DHT22;62045;49.986;8.672;2022-12-10T05:28:40;14.90;58.30
27258;DHT22;62045;49.986;8.672;2022-12-10T05:33:43;14.80;58.40
27258;DHT22;62045;49.986;8.672;2022-12-10T05:38:44;14.80;58.60
27258;DHT22;62045;49.986;8.672;2022-12-10T05:43:46;14.80;58.70
27258;DHT22;62045;49.986;8.672;2022-12-10T05:48:48;14.90;58.50
27258;DHT22;62045;49.986;8.672;2022-12-10T05:53:50;15.10;58.20
27258;DHT22;62045;49.986;8.672;2022-12-10T05:58:53;15.20;57.90
27258;DHT22;62045;49.986;8.672;2022-12-10T06:03:56;15.20;57.90
27258;DHT22;62045;49.986;8.672;2022-12-10T06:08:57;15.20;57.90
27258;DHT22;62045;49.986;8.672;2022-12-10T06:13:58;15.10;57.90
27258;DHT22;62045;49.986;8.672;2022-12-10T06:19:01;15.00;58.10
27258;DHT22;62045;49.986;8.672;2022-12-10T06:24:01;14.90;58.20
27258;DHT22;62045;49.986;8.672;2022-12-10T06:29:02;14.80;58.20
27258;DHT22;62045;49.986;8.672;2022-12-10T06:34:04;14.80;58.20
27258;DHT22;62045;49.986;8.672;2022-12-10T06:39:05;14.90;59.00
27258;DHT22;62045;49.986;8.672;2022-12-10T06:44:07;15.00;57.30
27258;DHT22;62045;49.986;8.672;2022-12-10T06:49:09;15.00;53.40
27258;DHT22;62045;49.986;8.672;2022-12-10T06:54:10;15.20;52.40
27258;DHT22;62045;49.986;8.672;2022-12-10T06:59:11;15.50;52.40
27258;DHT22;62045;49.986;8.672;2022-12-10T07:04:13;15.60;52.40
27258;DHT22;62045;49.986;8.672;2022-12-10T07:09:14;15.70;52.60
27258;DHT22;62045;49.986;8.672;2022-12-10T07:14:16;15.60;52.80
27258;DHT22;62045;49.986;8.672;2022-12-10T07:19:18;15.60;53.10
27258;DHT22;62045;49.986;8.672;2022-12-10T07:24:19;15.50;53.40
27258;DHT22;62045;49.986;8.672;2022-12-10T07:29:23;15.50;53.60
27258;DHT22;62045;49.986;8.672;2022-12-10T07:34:25;15.40;53.70
27258;DHT22;62045;49.986;8.672;2022-12-10T07:39:25;15.30;53.90
27258;DHT22;62045;49.986;8.672;2022-12-10T07:44:26;15.30;53.90
27258;DHT22;62045;49.986;8.672;2022-12-10T07:49:29;15.30;53.80
27258;DHT22;62045;49.986;8.672;2022-12-10T07:54:29;15.20;54.10
27258;DHT22;62045;49.986;8.672;2022-12-10T07:59:30;15.20;54.20
27258;DHT22;62045;49.986;8.672;2022-12-10T08:04:32;15.10;54.20
27258;DHT22;62045;49.986;8.672;2022-12-10T08:09:34;15.10;54.40
27258;DHT22;62045;49.986;8.672;2022-12-10T08:14:35;15.10;54.40
27258;DHT22;62045;49.986;8.672;2022-12-10T08:19:37;15.20;54.20
27258;DHT22;62045;49.986;8.672;2022-12-10T08:24:37;15.40;55.00
27258;DHT22;62045;49.986;8.672;2022-12-10T08:29:38;15.50;55.00
27258;DHT22;62045;49.986;8.672;2022-12-10T08:34:40;15.50;54.60
27258;DHT22;62045;49.986;8.672;2022-12-10T08:39:41;15.50;54.60
27258;DHT22;62045;49.986;8.672;2022-12-10T08:44:42;15.40;55.60
27258;DHT22;62045;49.986;8.672;2022-12-10T08:49:44;15.30;55.50
27258;DHT22;62045;49.986;8.672;2022-12-10T08:54:45;15.30;55.40
27258;DHT22;62045;49.986;8.672;2022-12-10T08:59:45;15.20;55.30
27258;DHT22;62045;49.986;8.672;2022-12-10T09:04:49;15.20;55.40
27258;DHT22;62045;49.986;8.672;2022-12-10T09:09:50;15.10;55.40
27258;DHT22;62045;49.986;8.672;2022-12-10T09:14:50;15.10;55.10
27258;DHT22;62045;49.986;8.672;2022-12-10T09:19:52;15.10;54.30
27258;DHT22;62045;49.986;8.672;2022-12-10T09:24:53;15.30;53.50
27258;DHT22;62045;49.986;8.672;2022-12-10T09:29:54;15.60;52.70
27258;DHT22;62045;49.986;8.672;2022-12-10T09:34:56;15.70;52.00
27258;DHT22;62045;49.986;8.672;2022-12-10T09:39:56;15.80;51.60
27258;DHT22;62045;49.986;8.672;2022-12-10T09:45:02;15.80;51.30
27258;DHT22;62045;49.986;8.672;2022-12-10T09:50:12;15.70;51.10
27258;DHT22;62045;49.986;8.672;2022-12-10T09:55:19;15.70;50.90
27258;DHT22;62045;49.986;8.672;2022-12-10T10:00:23;15.50;50.80
27258;DHT22;62045;49.986;8.672;2022-12-10T10:05:28;15.40;50.70
27258;DHT22;62045;49.986;8.672;2022-12-10T10:10:32;15.30;50.60
27258;DHT22;62045;49.986;8.672;2022-12-10T10:15:35;15.40;50.50
27258;DHT22;62045;49.986;8.672;2022-12-10T10:20:38;15.50;50.00
27258;DHT22;62045;49.986;8.672;2022-12-10T10:25:38;15.70;49.80
27258;DHT22;62045;49.986;8.672;2022-12-10T10:30:42;15.90;50.70
27258;DHT22;62045;49.986;8.672;2022-12-10T10:35:48;16.00;51.00
27258;DHT22;62045;49.986;8.672;2022-12-10T10:40:50;16.00;51.10
27258;DHT22;62045;49.986;8.672;2022-12-10T10:45:54;15.90;51.20
27258;DHT22;62045;49.986;8.672;2022-12-10T10:51:08;15.80;51.50
27258;DHT22;62045;49.986;8.672;2022-12-10T10:56:15;15.70;51.70
27258;DHT22;62045;49.986;8.672;2022-12-10T11:01:17;15.60;52.10
27258;DHT22;62045;49.986;8.672;2022-12-10T11:06:19;15.50;52.40
27258;DHT22;62045;49.986;8.672;2022-12-10T11:11:22;15.40;52.60
27258;DHT22;62045;49.986;8.672;2022-12-10T11:16:25;15.30;52.90
27258;DHT22;62045;49.986;8.672;2022-12-10T11:21:28;15.10;53.20
27258;DHT22;62045;49.986;8.672;2022-12-10T11:26:39;15.00;53.40
27258;DHT22;62045;49.986;8.672;2022-12-10T11:31:54;15.00;53.60
27258;DHT22;62045;49.986;8.672;2022-12-10T11:37:03;15.10;53.60
27258;DHT22;62045;49.986;8.672;2022-12-10T11:42:15;15.30;53.40
27258;DHT22;62045;49.986;8.672;2022-12-10T11:47:31;15.50;53.10
27258;DHT22;62045;49.986;8.672;2022-12-10T11:52:44;15.60;53.70
27258;DHT22;62045;49.986;8.672;2022-12-10T11:57:52;15.60;53.10
27258;DHT22;62045;49.986;8.672;2022-12-10T12:03:15;15.50;53.90
27258;DHT22;62045;49.986;8.672;2022-12-10T12:08:24;15.50;58.20
27258;DHT22;62045;49.986;8.672;2022-12-10T12:13:34;15.60;58.50
27258;DHT22;62045;49.986;8.672;2022-12-10T12:18:42;15.50;58.30
27258;DHT22;62045;49.986;8.672;2022-12-10T12:23:50;15.40;58.10
27258;DHT22;62045;49.986;8.672;2022-12-10T12:28:55;15.40;58.40
27258;DHT22;62045;49.986;8.672;2022-12-10T12:34:05;15.30;57.70
27258;DHT22;62045;49.986;8.672;2022-12-10T12:39:14;15.30;57.70
27258;DHT22;62045;49.986;8.672;2022-12-10T12:44:22;15.20;57.50
27258;DHT22;62045;49.986;8.672;2022-12-10T12:49:28;15.20;57.40
27258;DHT22;62045;49.986;8.672;2022-12-10T12:54:31;15.10;57.40
27258;DHT22;62045;49.986;8.672;2022-12-10T12:59:49;15.10;57.40
27258;DHT22;62045;49.986;8.672;2022-12-10T13:04:52;15.20;57.30
27258;DHT22;62045;49.986;8.672;2022-12-10T13:10:10;15.30;56.90
27258;DHT22;62045;49.986;8.672;2022-12-10T13:15:20;15.40;56.70
27258;DHT22;62045;49.986;8.672;2022-12-10T13:20:35;15.50;56.60
27258;DHT22;62045;49.986;8.672;2022-12-10T13:25:55;15.40;56.60
27258;DHT22;62045;49.986;8.672;2022-12-10T13:31:16;15.40;56.60
27258;DHT22;62045;49.986;8.672;2022-12-10T13:36:23;15.30;56.70
27258;DHT22;62045;49.986;8.672;2022-12-10T13:41:26;15.20;56.80
27258;DHT22;62045;49.986;8.672;2022-12-10T13:46:31;15.10;56.90
27258;DHT22;62045;49.986;8.672;2022-12-10T13:51:46;15.00;57.00
27258;DHT22;62045;49.986;8.672;2022-12-10T13:56:55;15.00;57.20
27258;DHT22;62045;49.986;8.672;2022-12-10T14:02:13;14.90;57.30
27258;DHT22;62045;49.986;8.672;2022-12-10T14:07:19;14.90;57.20
27258;DHT22;62045;49.986;8.672;2022-12-10T14:12:25;15.10;57.00
27258;DHT22;62045;49.986;8.672;2022-12-10T14:17:32;15.30;56.70
27258;DHT22;62045;49.986;8.672;2022-12-10T14:22:38;15.30;56.50
27258;DHT22;62045;49.986;8.672;2022-12-10T14:27:46;15.30;56.40
27258;DHT22;62045;49.986;8.672;2022-12-10T14:32:48;15.30;56.40
27258;DHT22;62045;49.986;8.672;2022-12-10T14:37:51;15.20;56.50
27258;DHT22;62045;49.986;8.672;2022-12-10T14:42:59;15.10;56.60
27258;DHT22;62045;49.986;8.672;2022-12-10T14:48:04;15.10;56.70
27258;DHT22;62045;49.986;8.672;2022-12-10T14:53:08;15.00;56.90
27258;DHT22;62045;49.986;8.672;2022-12-10T14:58:16;14.90;57.10
27258;DHT22;62045;49.986;8.672;2022-12-10T15:03:26;14.90;57.30
27258;DHT22;62045;49.986;8.672;2022-12-10T15:08:28;15.00;57.30
27258;DHT22;62045;49.986;8.672;2022-12-10T15:13:34;15.10;57.20
27258;DHT22;62045;49.986;8.672;2022-12-10T15:18:38;15.20;57.10
27258;DHT22;62045;49.986;8.672;2022-12-10T15:23:39;15.40;57.50
27258;DHT22;62045;49.986;8.672;2022-12-10T15:28:42;15.50;59.10
27258;DHT22;62045;49.986;8.672;2022-12-10T15:33:45;15.50;60.10
27258;DHT22;62045;49.986;8.672;2022-12-10T15:38:46;15.50;61.30
27258;DHT22;62045;49.986;8.672;2022-12-10T15:44:01;15.50;61.40
27258;DHT22;62045;49.986;8.672;2022-12-10T15:49:03;15.50;61.60
27258;DHT22;62045;49.986;8.672;2022-12-10T15:54:18;15.50;61.10
27258;DHT22;62045;49.986;8.672;2022-12-10T15:59:20;15.40;61.10
27258;DHT22;62045;49.986;8.672;2022-12-10T16:04:22;15.30;61.10
27258;DHT22;62045;49.986;8.672;2022-12-10T16:09:22;15.20;61.00
27258;DHT22;62045;49.986;8.672;2022-12-10T16:14:24;15.10;60.90
27258;DHT22;62045;49.986;8.672;2022-12-10T16:19:26;15.00;60.90
27258;DHT22;62045;49.986;8.672;2022-12-10T16:24:27;15.00;60.90
27258;DHT22;62045;49.986;8.672;2022-12-10T16:29:29;14.90;61.80
27258;DHT22;62045;49.986;8.672;2022-12-10T16:34:29;15.00;60.90
27258;DHT22;62045;49.986;8.672;2022-12-10T16:39:30;15.20;60.50
27258;DHT22;62045;49.986;8.672;2022-12-10T16:44:32;15.30;59.90
27258;DHT22;62045;49.986;8.672;2022-12-10T16:49:33;15.40;59.60
27258;DHT22;62045;49.986;8.672;2022-12-10T16:54:33;15.40;59.40
27258;DHT22;62045;49.986;8.672;2022-12-10T16:59:35;15.40;59.40
27258;DHT22;62045;49.986;8.672;2022-12-10T17:04:38;15.30;59.40
27258;DHT22;62045;49.986;8.672;2022-12-10T17:09:40;15.30;59.40
27258;DHT22;62045;49.986;8.672;2022-12-10T17:14:44;15.20;59.60
27258;DHT22;62045;49.986;8.672;2022-12-10T17:19:45;15.10;60.30
27258;DHT22;62045;49.986;8.672;2022-12-10T17:24:45;15.00;59.70
27258;DHT22;62045;49.986;8.672;2022-12-10T17:29:47;14.90;59.80
27258;DHT22;62045;49.986;8.672;2022-12-10T17:34:49;14.90;60.00
27258;DHT22;62045;49.986;8.672;2022-12-10T17:39:49;14.90;59.90
27258;DHT22;62045;49.986;8.672;2022-12-10T17:44:51;15.10;59.70
27258;DHT22;62045;49.986;8.672;2022-12-10T17:49:52;15.30;62.00
27258;DHT22;62045;49.986;8.672;2022-12-10T17:54:53;15.50;62.60
27258;DHT22;62045;49.986;8.672;2022-12-10T17:59:55;15.60;61.60
27258;DHT22;62045;49.986;8.672;2022-12-10T18:04:55;15.60;61.10
27258;DHT22;62045;49.986;8.672;2022-12-10T18:09:56;15.50;60.80
27258;DHT22;62045;49.986;8.672;2022-12-10T18:14:59;15.50;60.80
27258;DHT22;62045;49.986;8.672;2022-12-10T18:20:00;15.40;60.60
27258;DHT22;62045;49.986;8.672;2022-12-10T18:25:01;15.30;60.60
27258;DHT22;62045;49.986;8.672;2022-12-10T18:30:04;15.20;60.70
27258;DHT22;62045;49.986;8.672;2022-12-10T18:35:05;15.10;60.90
27258;DHT22;62045;49.986;8.672;2022-12-10T18:40:10;15.00;60.80
27258;DHT22;62045;49.986;8.672;2022-12-10T18:45:14;14.90;60.90
27258;DHT22;62045;49.986;8.672;2022-12-10T18:50:19;14.90;61.00
27258;DHT22;62045;49.986;8.672;2022-12-10T18:55:22;14.90;61.10
27258;DHT22;62045;49.986;8.672;2022-12-10T19:00:26;15.00;60.80
27258;DHT22;62045;49.986;8.672;2022-12-10T19:05:26;15.20;60.10
27258;DHT22;62045;49.986;8.672;2022-12-10T19:10:27;15.40;59.70
27258;DHT22;62045;49.986;8.672;2022-12-10T19:15:29;15.40;59.50
27258;DHT22;62045;49.986;8.672;2022-12-10T19:20:30;15.40;59.40
27258;DHT22;62045;49.986;8.672;2022-12-10T19:25:31;15.30;59.40
27258;DHT22;62045;49.986;8.672;2022-12-10T19:30:33;15.30;59.50
27258;DHT22;62045;49.986;8.672;2022-12-10T19:35:34;15.20;59.70
27258;DHT22;62045;49.986;8.672;2022-12-10T19:40:35;15.10;59.80
27258;DHT22;62045;49.986;8.672;2022-12-10T19:45:37;15.00;59.90
27258;DHT22;62045;49.986;8.672;2022-12-10T19:50:40;14.90;60.00
27258;DHT22;62045;49.986;8.672;2022-12-10T19:55:44;14.80;60.20
27258;DHT22;62045;49.986;8.672;2022-12-10T20:00:46;14.90;60.10
27258;DHT22;62045;49.986;8.672;2022-12-10T20:05:46;15.00;59.80
27258;DHT22;62045;49.986;8.672;2022-12-10T20:10:47;15.20;59.40
27258;DHT22;62045;49.986;8.672;2022-12-10T20:15:49;15.30;59.10
27258;DHT22;62045;49.986;8.672;2022-12-10T20:20:50;15.40;59.00
27258;DHT22;62045;49.986;8.672;2022-12-10T20:25:50;15.30;58.90
27258;DHT22;62045;49.986;8.672;2022-12-10T20:30:53;15.30;58.90
27258;DHT22;62045;49.986;8.672;2022-12-10T20:35:53;15.20;59.10
27258;DHT22;62045;49.986;8.672;2022-12-10T20:40:54;15.10;59.20
27258;DHT22;62045;49.986;8.672;2022-12-10T20:45:56;15.00;59.30
27258;DHT22;62045;49.986;8.672;2022-12-10T20:50:57;14.90;59.40
27258;DHT22;62045;49.986;8.672;2022-12-10T20:55:58;14.80;59.50
27258;DHT22;62045;49.986;8.672;2022-12-10T21:01:00;14.80;59.60
27258;DHT22;62045;49.986;8.672;2022-12-10T21:06:00;15.00;59.40
27258;DHT22;62045;49.986;8.672;2022-12-10T21:11:01;15.20;59.10
27258;DHT22;62045;49.986;8.672;2022-12-10T21:16:04;15.40;58.70
27258;DHT22;62045;49.986;8.672;2022-12-10T21:21:06;15.40;58.40
27258;DHT22;62045;49.986;8.672;2022-12-10T21:26:07;15.40;58.30
27258;DHT22;62045;49.986;8.672;2022-12-10T21:31:14;15.40;58.40
27258;DHT22;62045;49.986;8.672;2022-12-10T21:36:16;15.30;58.50
27258;DHT22;62045;49.986;8.672;2022-12-10T21:41:20;15.20;58.70
27258;DHT22;62045;49.986;8.672;2022-12-10T21:46:22;15.10;58.90
27258;DHT22;62045;49.986;8.672;2022-12-10T21:51:23;15.00;58.90
27258;DHT22;62045;49.986;8.672;2022-12-10T21:56:23;14.80;59.10
27258;DHT22;62045;49.986;8.672;2022-12-10T22:01:26;14.80;59.30
27258;DHT22;62045;49.986;8.672;2022-12-10T22:06:27;14.70;59.40
27258;DHT22;62045;49.986;8.672;2022-12-10T22:11:28;14.80;59.40
27258;DHT22;62045;49.986;8.672;2022-12-10T22:16:30;14.90;59.10
27258;DHT22;62045;49.986;8.672;2022-12-10T22:21:31;15.10;58.70
27258;DHT22;62045;49.986;8.672;2022-12-10T22:26:32;15.20;58.40
27258;DHT22;62045;49.986;8.672;2022-12-10T22:31:34;15.30;58.20
27258;DHT22;62045;49.986;8.672;2022-12-10T22:36:34;15.20;58.70
27258;DHT22;62045;49.986;8.672;2022-12-10T22:41:36;15.20;58.20
27258;DHT22;62045;49.986;8.672;2022-12-10T22:46:38;15.10;58.20
27258;DHT22;62045;49.986;8.672;2022-12-10T22:51:39;15.00;58.40
27258;DHT22;62045;49.986;8.672;2022-12-10T22:56:40;14.90;58.60
27258;DHT22;62045;49.986;8.672;2022-12-10T23:01:42;14.80;58.70
27258;DHT22;62045;49.986;8.672;2022-12-10T23:06:43;14.70;58.80
27258;DHT22;62045;49.986;8.672;2022-12-10T23:11:43;14.70;58.90
27258;DHT22;62045;49.986;8.672;2022-12-10T23:16:45;14.80;58.80
27258;DHT22;62045;49.986;8.672;2022-12-10T23:21:46;14.90;58.60
27258;DHT22;62045;49.986;8.672;2022-12-10T23:26:47;15.00;58.20
27258;DHT22;62045;49.986;8.672;2022-12-10T23:31:49;15.10;58.00
27258;DHT22;62045;49.986;8.672;2022-12-10T23:36:50;15.20;57.90
27258;DHT22;62045;49.986;8.672;2022-12-10T23:41:51;15.10;57.80
27258;DHT22;62045;49.986;8.672;2022-12-10T23:46:53;15.10;57.90
27258;DHT22;62045;49.986;8.672;2022-12-10T23:51:54;15.00;58.00
27258;DHT22;62045;49.986;8.672;2022-12-10T23:56:54;14.90;58.10
